Time;durP1;ratioP1;P1;durP2;ratioP2;P2;SDS_P1;SDS_P2;PMS_P1;PMS_P2;Temp;Humidity;BMP_temperature;BMP_pressure;BME280_temperature;BME280_humidity;BME280_pressure;Samples;Min_cycle;Max_cycle;Signal;HPM_P1;HPM_P2
2021/01/07 07:31:54;;;;;;;3.22;0.85;;;;;;;9.75;51.47;93493.53;5044491;28;1927357;-65
2021/01/07 07:34:30;;;;;;;1.83;1.05;;;;;;;9.81;51.34;93492.25;5073082;28;20039;-65
2021/01/07 07:36:55;;;;;;;1.50;0.82;;;;;;;9.79;50.86;93497.13;5071660;28;20116;-66
2021/01/07 07:39:26;;;;;;;6.18;1.70;;;;;;;9.83;51.49;93490.88;5073005;28;20032;-65
2021/01/07 07:42:07;;;;;;;5.28;1.35;;;;;;;9.88;50.85;93497.91;5084894;28;20076;-66
2021/01/07 07:44:32;;;;;;;2.53;0.95;;;;;;;9.90;50.57;93501.03;5083248;28;20575;-66
2021/01/07 07:46:58;;;;;;;2.33;1.08;;;;;;;9.90;50.35;93511.66;5080157;28;20048;-66
2021/01/07 07:49:23;;;;;;;1.65;0.90;;;;;;;9.90;50.28;93537.50;5079739;28;20024;-65
2021/01/07 07:51:51;;;;;;;2.53;0.80;;;;;;;10.01;50.74;93512.09;5091463;28;20823;-70
2021/01/07 07:54:17;;;;;;;2.92;0.65;;;;;;;10.03;50.01;93541.84;5083203;28;20082;-69
2021/01/07 07:56:42;;;;;;;8.30;1.30;;;;;;;10.10;50.54;93542.16;5071826;28;20463;-70
2021/01/07 07:59:10;;;;;;;5.63;1.70;;;;;;;10.11;51.82;93543.72;5075471;28;20424;-70
2021/01/07 08:01:42;;;;;;;11.27;1.77;;;;;;;10.20;49.88;93573.78;5081459;28;20474;-69
2021/01/07 08:04:10;;;;;;;;;;;;;;;9.91;54.15;93603.75;5088223;28;20043;-70
2021/01/07 08:06:37;;;;;;;3.65;1.35;;;;;;;9.08;56.67;93598.50;5080301;28;19924;-69
2021/01/07 08:09:10;;;;;;;3.78;1.85;;;;;;;7.95;58.47;93622.66;5088782;28;20410;-70
2021/01/07 08:11:50;;;;;;;6.35;1.50;;;;;;;7.16;60.78;93639.75;5086974;28;20036;-70
2021/01/07 08:14:28;;;;;;;8.43;1.30;;;;;;;6.39;62.74;93647.28;5078153;28;20024;-69
2021/01/07 08:16:58;;;;;;;3.65;1.30;;;;;;;5.77;64.79;93683.69;5090163;28;20058;-70
2021/01/07 08:19:33;;;;;;;1.95;0.75;;;;;;;5.28;66.35;93685.66;5085527;28;20090;-68
2021/01/07 08:22:00;;;;;;;1.00;0.60;;;;;;;4.98;67.01;93697.38;5080714;28;20046;-67
2021/01/07 08:24:26;;;;;;;1.55;0.80;;;;;;;4.76;67.13;93721.66;5079616;28;20035;-66
2021/01/07 08:27:19;;;;;;;3.95;1.25;;;;;;;4.50;68.52;93729.81;5076741;28;20475;-67
2021/01/07 08:29:47;;;;;;;2.35;0.73;;;;;;;4.17;70.00;93726.94;5080882;28;20028;-66
2021/01/07 08:32:17;;;;;;;1.67;0.60;;;;;;;4.00;70.44;93723.88;5074774;28;20052;-65
2021/01/07 08:34:44;;;;;;;4.65;1.02;;;;;;;3.92;70.97;93742.91;5072407;28;20043;-66
2021/01/07 08:37:12;;;;;;;5.38;0.88;;;;;;;3.86;71.64;93744.00;5080995;28;20390;-65
2021/01/07 08:39:39;;;;;;;3.65;1.15;;;;;;;3.82;71.20;93749.03;5084784;28;20060;-65
2021/01/07 08:42:05;;;;;;;4.38;1.20;;;;;;;3.66;71.80;93748.34;5081095;28;20031;-67
2021/01/07 08:44:31;;;;;;;2.47;0.85;;;;;;;3.54;72.32;93751.31;5083327;28;20024;-66
2021/01/07 08:46:56;;;;;;;2.97;0.98;;;;;;;3.63;72.30;93756.03;5073202;28;20054;-66
2021/01/07 08:49:22;;;;;;;0.85;0.57;;;;;;;3.49;70.98;93780.31;5081374;28;20023;-65
2021/01/07 08:51:48;;;;;;;3.60;1.30;;;;;;;3.45;71.80;93766.09;5086869;28;20515;-66
2021/01/07 08:54:32;;;;;;;2.83;1.20;;;;;;;3.46;72.13;93770.34;5078448;28;20351;-65
2021/01/07 08:57:03;;;;;;;1.23;0.60;;;;;;;3.30;72.47;93776.72;5074570;28;20410;-65
2021/01/07 08:59:37;;;;;;;4.55;1.38;;;;;;;3.29;72.85;93777.75;5079252;28;20020;-64
2021/01/07 09:02:02;;;;;;;1.45;0.80;;;;;;;3.28;72.84;93782.25;5076518;28;20032;-66
2021/01/07 09:04:35;;;;;;;2.47;0.98;;;;;;;3.17;72.82;93794.63;5078158;28;20140;-66
2021/01/07 09:07:09;;;;;;;1.50;0.60;;;;;;;3.16;73.69;93789.66;5080767;28;20020;-65
2021/01/07 09:09:40;;;;;;;2.97;1.33;;;;;;;3.15;75.05;93801.25;5086586;28;20089;-65
2021/01/07 09:12:14;;;;;;;0.73;0.50;;;;;;;3.10;73.96;93788.88;5073482;28;20031;-67
2021/01/07 09:14:52;;;;;;;1.02;0.65;;;;;;;3.01;74.86;93785.22;5089030;28;20060;-65
2021/01/07 09:17:22;;;;;;;1.05;0.60;;;;;;;2.94;75.61;93756.53;5076422;28;20033;-67
2021/01/07 09:19:49;;;;;;;2.92;0.85;;;;;;;2.98;76.01;93768.09;5080158;28;20020;-66
2021/01/07 09:22:24;;;;;;;1.23;0.60;;;;;;;2.97;76.26;93757.84;5074785;28;20028;-66
2021/01/07 09:24:51;;;;;;;1.63;0.80;;;;;;;3.03;75.98;93750.72;5090107;28;20032;-66
2021/01/07 09:27:21;;;;;;;3.10;1.05;;;;;;;2.97;76.42;93748.13;5074909;28;20506;-66
2021/01/07 09:29:47;;;;;;;1.27;0.55;;;;;;;2.98;76.04;93748.91;5079062;28;20027;-66
2021/01/07 09:32:13;;;;;;;1.52;0.80;;;;;;;3.03;77.89;93743.59;5080355;28;20503;-65
2021/01/07 09:34:40;;;;;;;1.45;0.65;;;;;;;3.10;76.76;93725.69;5076913;28;20501;-66
2021/01/07 09:37:08;;;;;;;1.63;0.70;;;;;;;3.08;75.81;93727.00;5074082;28;20026;-69
2021/01/07 09:39:34;;;;;;;2.80;1.08;;;;;;;3.12;77.79;93725.41;5081936;28;20050;-65
2021/01/07 09:42:00;;;;;;;3.05;1.02;;;;;;;2.98;77.25;93733.09;5080671;28;20481;-65
2021/01/07 09:44:26;;;;;;;2.15;0.90;;;;;;;2.86;78.55;93722.84;5078031;28;20103;-65
2021/01/07 09:46:53;;;;;;;2.08;0.80;;;;;;;2.82;79.20;93716.56;5075626;28;20059;-67
2021/01/07 09:49:18;;;;;;;1.98;1.10;;;;;;;2.82;79.30;93719.19;5078969;28;20024;-66
2021/01/07 09:51:44;;;;;;;2.17;1.10;;;;;;;2.81;79.71;93736.81;5076262;28;20030;-65
2021/01/07 09:54:10;;;;;;;1.02;0.70;;;;;;;2.73;78.00;93715.53;5077708;28;20033;-65
2021/01/07 09:56:35;;;;;;;0.65;0.40;;;;;;;2.69;78.81;93704.75;5075687;28;20112;-66
2021/01/07 09:59:01;;;;;;;1.83;0.98;;;;;;;2.80;80.48;93710.75;5081433;28;20028;-66
2021/01/07 10:01:26;;;;;;;2.22;1.00;;;;;;;2.78;79.38;93703.13;5068537;28;20025;-66
2021/01/07 10:03:51;;;;;;;1.85;0.90;;;;;;;2.86;80.33;93696.53;5083966;28;20028;-66
2021/01/07 10:06:17;;;;;;;2.53;1.10;;;;;;;2.87;80.01;93700.75;5089769;28;20388;-68
2021/01/07 10:08:42;;;;;;;2.05;0.90;;;;;;;2.87;80.11;93692.84;5079560;28;20030;-67
2021/01/07 10:11:08;;;;;;;2.97;1.02;;;;;;;2.92;79.71;93690.19;5078885;28;20110;-69
2021/01/07 10:13:34;;;;;;;4.50;1.67;;;;;;;2.92;78.92;93716.53;5077348;28;20033;-69
2021/01/07 10:16:00;;;;;;;3.45;1.23;;;;;;;2.97;78.05;93711.25;5079958;28;20028;-68
2021/01/07 10:18:26;;;;;;;3.13;1.23;;;;;;;3.05;78.77;93712.53;5078979;28;20510;-68
2021/01/07 10:20:58;;;;;;;2.33;1.42;;;;;;;3.05;78.15;93707.25;5084923;28;20032;-66
2021/01/07 10:23:24;;;;;;;1.90;0.73;;;;;;;3.07;78.13;93697.22;5069653;28;20033;-69
2021/01/07 10:25:50;;;;;;;2.28;1.20;;;;;;;3.11;77.30;93708.81;5079892;28;20023;-68
2021/01/07 10:28:17;;;;;;;2.55;1.27;;;;;;;3.09;76.72;93713.56;5083657;28;20063;-69
2021/01/07 10:30:42;;;;;;;1.60;0.77;;;;;;;3.10;76.95;93703.84;5081961;28;20028;-69
2021/01/07 10:33:08;;;;;;;2.10;0.93;;;;;;;3.13;76.48;93713.81;5094546;28;20121;-70
2021/01/07 10:35:38;;;;;;;2.88;1.00;;;;;;;3.15;76.77;93701.94;5097726;28;20039;-69
2021/01/07 10:38:03;;;;;;;1.60;0.85;;;;;;;3.21;76.59;93705.34;5076706;28;20016;-71
2021/01/07 10:40:33;;;;;;;1.70;1.00;;;;;;;3.31;77.40;93710.56;5074345;28;20024;-68
2021/01/07 10:42:59;;;;;;;1.88;1.00;;;;;;;3.38;77.02;93716.34;5080631;28;20390;-67
2021/01/07 10:45:26;;;;;;;1.63;1.13;;;;;;;3.46;77.23;93706.28;5094149;28;20070;-68
2021/01/07 10:47:57;;;;;;;2.63;1.17;;;;;;;3.41;75.74;93709.75;5097828;28;20016;-69
2021/01/07 10:50:27;;;;;;;2.07;1.07;;;;;;;3.46;74.82;93698.38;5093957;28;20024;-67
2021/01/07 10:53:05;;;;;;;1.45;0.80;;;;;;;3.51;74.30;93714.16;5090523;28;20475;-67
2021/01/07 10:55:32;;;;;;;1.90;0.73;;;;;;;3.44;75.60;93713.66;5082511;28;20020;-66
2021/01/07 10:58:16;;;;;;;2.15;0.90;;;;;;;3.54;73.72;93703.06;5073601;28;20539;-67
2021/01/07 11:00:57;;;;;;;2.53;0.90;;;;;;;3.53;74.42;93704.94;5085690;28;20111;-66
2021/01/07 11:03:53;;;;;;;2.35;1.10;;;;;;;3.41;75.72;93699.97;5080920;28;20448;-66
2021/01/07 11:06:29;;;;;;;3.75;1.95;;;;;;;3.37;76.27;93692.91;5096096;28;20028;-67
2021/01/07 11:09:30;;;;;;;4.90;1.90;;;;;;;3.37;76.68;93701.59;5079684;28;20031;-67
2021/01/07 11:12:02;;;;;;;6.07;2.20;;;;;;;3.47;77.24;93706.00;5011503;28;20026;-67
2021/01/07 11:14:31;;;;;;;;;;;;;;;3.53;78.05;93694.38;5093499;28;20070;-67
2021/01/07 11:17:01;;;;;;;5.75;2.38;;;;;;;3.48;78.39;93701.53;5099564;28;20378;-68
2021/01/07 11:19:27;;;;;;;3.97;2.00;;;;;;;3.46;76.95;93693.09;5112978;28;20444;-67
2021/01/07 11:22:17;;;;;;;3.83;2.08;;;;;;;3.42;77.29;93680.50;5086310;28;20074;-67
2021/01/07 11:24:43;;;;;;;5.70;2.40;;;;;;;3.46;76.48;93687.84;5069700;28;20024;-67
2021/01/07 11:27:12;;;;;;;10.57;2.72;;;;;;;3.49;77.17;93688.09;5077158;28;20390;-67
2021/01/07 11:29:39;;;;;;;6.85;2.35;;;;;;;3.57;76.91;93694.63;5080070;28;20034;-67
2021/01/07 11:32:05;;;;;;;6.95;2.05;;;;;;;3.62;75.98;93697.22;5072873;28;20044;-67
2021/01/07 11:34:32;;;;;;;5.22;2.08;;;;;;;3.64;75.78;93691.69;5086423;28;20447;-68
2021/01/07 11:37:15;;;;;;;3.47;1.40;;;;;;;3.68;74.64;93688.22;5089770;28;20393;-68
2021/01/07 11:39:56;;;;;;;5.82;1.88;;;;;;;3.76;73.97;93690.28;5080581;28;20487;-68
2021/01/07 11:42:36;;;;;;;3.75;1.70;;;;;;;3.73;73.81;93711.16;5077393;28;20033;-67
2021/01/07 11:45:04;;;;;;;4.25;2.20;;;;;;;3.78;72.59;93705.84;5089353;28;20384;-68
2021/01/07 11:47:33;;;;;;;10.90;2.75;;;;;;;3.82;72.57;93699.72;5079725;28;20105;-67
2021/01/07 11:50:02;;;;;;;3.97;1.83;;;;;;;3.81;72.10;93700.03;5077609;28;20161;-66
2021/01/07 11:52:29;;;;;;;6.55;1.95;;;;;;;3.93;71.52;93700.47;5079716;28;20172;-67
2021/01/07 11:54:55;;;;;;;20.73;4.30;;;;;;;3.99;71.86;93698.59;5083476;28;20024;-67
2021/01/07 11:57:21;;;;;;;12.95;5.05;;;;;;;4.06;72.02;93709.59;5088873;28;20453;-66
2021/01/07 11:59:51;;;;;;;12.13;5.07;;;;;;;4.22;71.65;93705.00;5073705;28;20024;-67
2021/01/07 12:02:17;;;;;;;10.75;3.53;;;;;;;4.31;72.22;93715.72;5071120;28;20032;-67
2021/01/07 12:04:42;;;;;;;9.77;4.38;;;;;;;4.42;72.43;93718.00;5072201;28;20017;-68
2021/01/07 12:07:35;;;;;;;7.68;3.38;;;;;;;4.56;71.42;93731.34;5081082;28;20028;-67
2021/01/07 12:10:04;;;;;;;8.50;2.60;;;;;;;4.58;70.36;93723.94;5074581;28;20063;-67
2021/01/07 12:12:39;;;;;;;5.10;2.55;;;;;;;4.58;69.85;93736.34;5089264;28;20107;-67
2021/01/07 12:15:05;;;;;;;6.40;3.08;;;;;;;4.57;69.88;93719.72;5072432;28;20020;-68
2021/01/07 12:17:30;;;;;;;5.65;2.38;;;;;;;4.55;69.59;93742.97;5080815;28;20126;-67
2021/01/07 12:20:00;;;;;;;6.60;2.78;;;;;;;4.52;69.96;93743.53;5072071;28;20481;-67
2021/01/07 12:22:26;;;;;;;7.03;2.63;;;;;;;4.53;71.00;93739.81;5081122;28;20072;-67
2021/01/07 12:24:54;;;;;;;6.97;3.08;;;;;;;4.60;71.18;93757.97;5073532;28;20024;-66
2021/01/07 12:27:21;;;;;;;5.93;2.63;;;;;;;4.50;70.37;93755.41;5077064;28;20032;-68
2021/01/07 12:29:47;;;;;;;7.32;3.33;;;;;;;4.46;70.34;93757.03;5086747;28;20669;-67
2021/01/07 12:32:31;;;;;;;11.05;3.63;;;;;;;4.52;71.01;93758.56;5083818;28;20071;-67
2021/01/07 12:35:10;;;;;;;7.93;3.85;;;;;;;4.43;70.59;93761.00;5080237;28;20086;-67
2021/01/07 12:37:49;;;;;;;8.02;3.72;;;;;;;4.33;71.46;93753.97;5068439;28;20052;-66
2021/01/07 12:40:19;;;;;;;8.70;4.18;;;;;;;4.29;71.25;93752.16;5082193;28;20029;-65
2021/01/07 12:42:50;;;;;;;10.55;4.55;;;;;;;4.15;72.15;93752.78;5073973;28;20127;-67
2021/01/07 12:45:16;;;;;;;9.48;4.50;;;;;;;4.18;72.90;93754.09;5081263;28;20058;-67
2021/01/07 12:47:42;;;;;;;8.70;4.03;;;;;;;4.21;72.79;93759.59;5083774;28;20387;-67
2021/01/07 12:50:10;;;;;;;8.30;4.13;;;;;;;4.30;72.76;93753.75;5077914;28;20031;-65
2021/01/07 12:52:36;;;;;;;8.35;3.78;;;;;;;4.36;72.46;93744.72;5076527;28;20016;-66
2021/01/07 12:55:03;;;;;;;9.77;3.50;;;;;;;4.37;71.45;93751.56;5087936;28;20028;-66
2021/01/07 12:57:35;;;;;;;7.55;2.38;;;;;;;4.34;71.66;93741.56;5085157;28;20043;-66
2021/01/07 13:00:09;;;;;;;7.03;3.08;;;;;;;4.36;71.77;93742.09;5082564;28;20016;-67
2021/01/07 13:02:57;;;;;;;7.05;3.00;;;;;;;4.35;71.36;93753.69;5075005;28;20127;-67
2021/01/07 13:05:26;;;;;;;5.15;2.25;;;;;;;4.27;70.98;93759.56;5074693;28;20024;-67
2021/01/07 13:07:57;;;;;;;3.65;1.98;;;;;;;4.26;71.64;93753.50;5075212;28;20102;-67
2021/01/07 13:10:27;;;;;;;4.30;1.67;;;;;;;4.26;70.95;93753.50;5079410;28;20051;-66
2021/01/07 13:12:54;;;;;;;2.35;1.00;;;;;;;4.28;70.50;93755.88;5076845;28;20086;-68
2021/01/07 13:15:19;;;;;;;1.38;0.80;;;;;;;4.20;70.46;93773.06;5078531;28;20058;-67
2021/01/07 13:17:45;;;;;;;2.70;1.38;;;;;;;4.10;71.59;93779.19;5072009;28;20608;-67
2021/01/07 13:20:11;;;;;;;2.55;1.13;;;;;;;4.00;72.24;93766.06;5073026;28;20027;-66
2021/01/07 13:22:39;;;;;;;3.00;1.48;;;;;;;3.99;72.59;93764.50;5084387;28;20506;-67
2021/01/07 13:25:09;;;;;;;2.92;1.45;;;;;;;3.96;71.65;93768.47;5085879;28;20093;-66
2021/01/07 13:27:34;;;;;;;4.85;1.48;;;;;;;4.04;73.14;93771.59;5081637;28;20020;-67
2021/01/07 13:30:00;;;;;;;2.95;1.50;;;;;;;3.94;72.56;93775.06;5081792;28;20460;-66
2021/01/07 13:32:25;;;;;;;2.15;1.13;;;;;;;3.86;72.65;93779.06;5075374;28;20375;-66
2021/01/07 13:34:52;;;;;;;2.00;1.23;;;;;;;3.80;72.21;93778.31;5082733;28;20028;-66
2021/01/07 13:37:20;;;;;;;1.60;0.82;;;;;;;3.72;72.66;93776.25;5077051;28;20462;-66
2021/01/07 13:39:47;;;;;;;1.60;0.80;;;;;;;3.71;73.92;93779.16;5081212;28;20028;-66
2021/01/07 13:42:14;;;;;;;1.33;0.75;;;;;;;3.65;72.66;93794.22;5078220;28;20146;-67
2021/01/07 13:44:43;;;;;;;2.10;0.98;;;;;;;3.56;74.33;93790.56;5073537;28;20028;-67
2021/01/07 13:47:09;;;;;;;1.15;0.70;;;;;;;3.42;73.42;93785.09;5076409;28;20021;-67
2021/01/07 13:49:37;;;;;;;5.18;1.30;;;;;;;3.44;74.39;93787.44;5076521;28;20028;-67
2021/01/07 13:52:05;;;;;;;2.15;1.15;;;;;;;3.35;75.24;93780.09;5081817;28;20030;-68
2021/01/07 13:54:36;;;;;;;2.90;1.08;;;;;;;3.32;74.65;93796.47;5085918;28;20023;-69
2021/01/07 13:57:04;;;;;;;1.27;0.88;;;;;;;3.26;74.25;93797.53;5069378;28;20035;-69
2021/01/07 13:59:34;;;;;;;3.00;1.40;;;;;;;3.23;74.94;93800.69;5081316;28;20552;-69
2021/01/07 14:02:09;;;;;;;2.55;1.00;;;;;;;3.28;74.90;93784.88;5074185;28;20058;-69
2021/01/07 14:04:42;;;;;;;1.90;1.10;;;;;;;3.29;74.96;93786.44;5077544;28;20063;-69
2021/01/07 14:07:18;;;;;;;2.70;1.13;;;;;;;3.31;75.08;93779.06;5086732;28;20111;-68
2021/01/07 14:09:44;;;;;;;2.00;1.20;;;;;;;3.36;74.83;93775.66;5080009;28;20056;-67
2021/01/07 14:12:14;;;;;;;3.05;1.50;;;;;;;3.40;75.44;93774.81;5071430;28;20613;-68
2021/01/07 14:14:43;;;;;;;4.03;1.42;;;;;;;3.50;74.22;93774.00;5070953;28;20052;-67
2021/01/07 14:17:09;;;;;;;3.20;1.35;;;;;;;3.53;73.27;93777.94;5078964;28;20406;-67
2021/01/07 14:19:36;;;;;;;3.08;1.45;;;;;;;3.61;73.27;93769.47;5080325;28;20055;-67
2021/01/07 14:22:03;;;;;;;6.00;1.73;;;;;;;3.66;73.41;93768.63;5084037;28;20395;-68
2021/01/07 14:24:30;;;;;;;4.38;1.40;;;;;;;3.70;72.73;93781.00;5079894;28;20045;-69
2021/01/07 14:27:10;;;;;;;3.63;1.10;;;;;;;3.84;73.05;93786.47;5073754;28;20025;-68
2021/01/07 14:29:37;;;;;;;2.25;0.90;;;;;;;3.87;71.69;93783.31;5080259;28;20024;-68
2021/01/07 14:32:06;;;;;;;6.85;0.98;;;;;;;3.87;70.47;93777.22;5074357;28;20059;-67
2021/01/07 14:34:37;;;;;;;2.08;0.70;;;;;;;3.94;71.44;93769.81;5086567;28;20034;-65
2021/01/07 14:37:19;;;;;;;2.72;1.20;;;;;;;4.06;72.12;93791.34;5080455;28;20112;-69
2021/01/07 14:39:45;;;;;;;2.55;1.02;;;;;;;4.17;69.47;93779.69;5076566;28;20028;-67
2021/01/07 14:42:10;;;;;;;2.88;1.02;;;;;;;4.17;69.53;93784.16;5076699;28;20375;-66
2021/01/07 14:44:36;;;;;;;0.82;0.50;;;;;;;4.21;68.94;93786.00;5086020;28;20120;-67
2021/01/07 14:47:03;;;;;;;5.22;0.70;;;;;;;4.33;69.48;93774.28;5083612;28;20078;-66
2021/01/07 14:49:31;;;;;;;5.57;1.95;;;;;;;4.44;69.66;93781.06;5083150;28;20020;-68
2021/01/07 14:51:59;;;;;;;5.53;2.20;;;;;;;4.51;69.20;93794.72;5089071;28;20047;-66
2021/01/07 14:54:31;;;;;;;2.90;1.10;;;;;;;4.37;67.84;93799.84;5082569;28;20029;-67
2021/01/07 14:57:01;;;;;;;;;;;;;;;4.32;68.95;93797.25;5086519;28;20024;-67
2021/01/07 14:59:30;;;;;;;1.73;0.82;;;;;;;4.22;69.12;93792.06;5086402;28;19919;-68
2021/01/07 15:02:23;;;;;;;1.25;0.60;;;;;;;4.11;67.69;93787.88;5085016;28;20117;-67
2021/01/07 15:05:05;;;;;;;1.77;0.70;;;;;;;4.18;68.08;93796.28;5078300;28;20107;-69
2021/01/07 15:07:37;;;;;;;;;;;;;;;4.26;68.55;93795.72;5082756;28;20543;-68
2021/01/07 15:10:07;;;;;;;1.50;0.70;;;;;;;4.26;68.59;93801.00;5076439;28;20343;-67
2021/01/07 15:12:40;;;;;;;9.43;1.67;;;;;;;4.26;68.57;93803.63;5082608;28;20024;-67
2021/01/07 15:15:13;;;;;;;4.20;2.00;;;;;;;4.33;69.48;93790.13;5080461;28;20020;-68
2021/01/07 15:17:43;;;;;;;;;;;;;;;4.38;69.61;93784.81;5083612;28;20056;-68
2021/01/07 15:20:15;;;;;;;4.82;1.73;;;;;;;4.38;67.94;93787.47;5085927;28;19916;-67
2021/01/07 15:22:46;;;;;;;;;;;;;;;4.32;68.42;93788.56;5081886;28;20024;-67
2021/01/07 15:25:22;;;;;;;9.75;3.83;;;;;;;4.33;69.14;93777.69;5082772;28;19912;-67
2021/01/07 15:27:55;;;;;;;9.02;3.55;;;;;;;4.40;70.23;93782.69;5074270;28;20036;-67
2021/01/07 15:30:25;;;;;;;9.20;4.43;;;;;;;4.49;68.88;93780.25;5076560;28;20074;-67
2021/01/07 15:32:51;;;;;;;8.52;3.20;;;;;;;4.49;69.40;93785.53;5079442;28;20052;-67
2021/01/07 15:35:20;;;;;;;10.30;3.55;;;;;;;4.52;68.99;93793.69;5070944;28;20502;-68
2021/01/07 15:38:04;;;;;;;10.05;3.20;;;;;;;4.57;67.96;93783.06;5082770;28;20514;-68
2021/01/07 15:41:06;;;;;;;7.53;3.53;;;;;;;4.61;68.79;93776.16;5087805;28;20038;-67
2021/01/07 15:43:56;;;;;;;9.80;4.85;;;;;;;4.76;69.43;93795.56;5078215;28;20427;-67
2021/01/07 15:46:22;;;;;;;11.63;5.95;;;;;;;4.85;70.55;93786.00;5076521;28;20210;-67
2021/01/07 15:49:24;;;;;;;16.38;7.45;;;;;;;4.94;70.43;93786.19;5078621;28;20107;-68
2021/01/07 15:51:52;;;;;;;;;;;;;;;5.05;71.06;93795.59;5083426;28;20555;-67
2021/01/07 15:54:54;;;;;;;14.77;7.15;;;;;;;5.09;69.79;93788.69;5085453;28;19912;-68
2021/01/07 15:57:25;;;;;;;19.45;9.38;;;;;;;5.17;69.59;93789.91;5066792;28;20090;-67
2021/01/07 16:00:00;;;;;;;18.60;9.13;;;;;;;5.23;69.87;93792.22;5077876;28;20029;-68
2021/01/07 16:02:29;;;;;;;21.85;9.48;;;;;;;5.27;69.54;93792.47;5080538;28;20062;-68
2021/01/07 16:04:54;;;;;;;25.33;11.15;;;;;;;5.30;69.57;93799.03;5081291;28;20480;-69
2021/01/07 16:07:39;;;;;;;30.70;14.57;;;;;;;5.33;69.82;93793.97;5084376;28;20025;-68
2021/01/07 16:10:06;;;;;;;35.20;15.40;;;;;;;5.40;69.81;93797.06;5080349;28;20031;-67
2021/01/07 16:12:32;;;;;;;25.90;11.00;;;;;;;5.35;70.28;93791.03;5088191;28;20032;-68
2021/01/07 16:14:58;;;;;;;16.77;8.15;;;;;;;5.31;69.40;93800.59;5089053;28;20123;-67
2021/01/07 16:17:28;;;;;;;11.35;6.05;;;;;;;5.23;68.63;93799.34;5086732;28;20132;-68
2021/01/07 16:19:57;;;;;;;9.77;4.70;;;;;;;5.20;69.05;93784.06;5079754;28;20070;-66
2021/01/07 16:22:41;;;;;;;12.27;6.32;;;;;;;5.22;70.25;93803.06;5076263;28;20032;-67
2021/01/07 16:25:13;;;;;;;8.35;4.18;;;;;;;5.25;68.21;93817.56;5084992;28;20504;-67
2021/01/07 16:27:46;;;;;;;4.95;2.88;;;;;;;5.09;68.17;93803.72;5077357;28;20479;-67
2021/01/07 16:30:12;;;;;;;6.85;4.10;;;;;;;5.01;68.29;93795.34;5071831;28;20028;-66
2021/01/07 16:32:38;;;;;;;6.18;3.72;;;;;;;5.07;69.77;93808.50;5079625;28;20047;-67
2021/01/07 16:35:05;;;;;;;5.95;3.63;;;;;;;5.17;70.53;93795.19;5071239;28;20025;-68
2021/01/07 16:37:32;;;;;;;8.60;4.20;;;;;;;5.20;70.43;93792.78;5077950;28;20120;-68
2021/01/07 16:39:58;;;;;;;9.38;5.30;;;;;;;5.28;70.26;93809.88;5080291;28;20032;-68
2021/01/07 16:42:26;;;;;;;10.05;5.80;;;;;;;5.37;70.37;93800.28;5073097;28;20476;-68
2021/01/07 16:44:52;;;;;;;12.05;5.57;;;;;;;5.39;69.18;93807.91;5081146;28;20115;-67
2021/01/07 16:47:18;;;;;;;10.57;5.65;;;;;;;5.38;70.00;93806.34;5084347;28;20108;-68
2021/01/07 16:49:44;;;;;;;11.82;6.22;;;;;;;5.28;69.41;93812.53;5082769;28;20115;-67
2021/01/07 16:52:09;;;;;;;19.38;7.30;;;;;;;5.30;69.20;93806.97;5073826;28;20122;-67
2021/01/07 16:54:35;;;;;;;10.15;5.22;;;;;;;5.31;68.52;93809.34;5081073;28;20040;-65
2021/01/07 16:57:00;;;;;;;10.00;4.93;;;;;;;5.32;68.06;93812.75;5075285;28;20145;-65
2021/01/07 16:59:26;;;;;;;19.58;7.88;;;;;;;5.30;68.36;93820.19;5083570;28;20063;-68
2021/01/07 17:01:52;;;;;;;15.18;7.68;;;;;;;5.22;68.67;93832.13;5088654;28;20047;-67
2021/01/07 17:04:17;;;;;;;11.13;5.68;;;;;;;5.14;69.10;93832.75;5077048;28;20388;-66
2021/01/07 17:06:42;;;;;;;8.15;4.40;;;;;;;4.97;68.57;93833.19;5076920;28;20502;-67
2021/01/07 17:09:08;;;;;;;7.75;3.78;;;;;;;4.85;69.14;93830.13;5080096;28;20028;-66
2021/01/07 17:11:43;;;;;;;9.18;4.28;;;;;;;4.75;69.96;93823.06;5079475;28;20122;-68
2021/01/07 17:14:10;;;;;;;8.63;4.30;;;;;;;4.57;69.97;93814.75;5082350;28;20387;-68
2021/01/07 17:16:36;;;;;;;6.50;3.42;;;;;;;4.33;70.84;93819.16;5073343;28;20090;-70
2021/01/07 17:19:01;;;;;;;5.65;3.08;;;;;;;4.25;71.62;93825.78;5074773;28;20028;-65
2021/01/07 17:21:26;;;;;;;6.70;3.08;;;;;;;4.14;71.83;93827.72;5087581;28;20016;-66
2021/01/07 17:23:52;;;;;;;4.60;2.30;;;;;;;4.10;71.83;93825.91;5077883;28;20194;-66
2021/01/07 17:26:25;;;;;;;3.05;1.52;;;;;;;4.02;71.54;93825.38;5084247;28;20024;-66
2021/01/07 17:28:54;;;;;;;4.95;2.00;;;;;;;3.99;72.82;93820.69;5082465;28;20024;-68
2021/01/07 17:31:20;;;;;;;6.63;1.75;;;;;;;3.83;72.73;93816.53;5074356;28;20039;-66
2021/01/07 17:33:46;;;;;;;3.30;1.73;;;;;;;3.84;72.76;93810.19;5094197;28;20043;-65
2021/01/07 17:36:12;;;;;;;2.92;1.52;;;;;;;3.77;73.12;93818.41;5083737;28;20047;-67
2021/01/07 17:38:38;;;;;;;2.97;1.40;;;;;;;3.75;72.91;93814.47;5100467;28;20028;-67
2021/01/07 17:41:04;;;;;;;2.22;1.30;;;;;;;3.72;73.19;93807.88;5080684;28;20558;-67
2021/01/07 17:43:30;;;;;;;3.70;1.35;;;;;;;3.73;73.11;93806.06;5083735;28;20024;-68
2021/01/07 17:45:55;;;;;;;2.15;1.15;;;;;;;3.75;73.04;93802.06;5106175;28;20046;-69
2021/01/07 17:48:21;;;;;;;3.92;1.65;;;;;;;3.78;73.49;93806.00;5097883;28;20028;-68
2021/01/07 17:50:46;;;;;;;3.97;1.60;;;;;;;3.73;73.05;93812.09;5079169;28;20047;-68
2021/01/07 17:53:11;;;;;;;2.97;1.60;;;;;;;3.75;73.38;93812.63;5073726;28;20491;-67
2021/01/07 17:55:37;;;;;;;4.40;1.60;;;;;;;3.73;73.53;93801.56;5080374;28;20391;-67
2021/01/07 17:58:02;;;;;;;6.82;2.20;;;;;;;3.78;73.53;93813.91;5100388;28;20028;-68
2021/01/07 18:00:28;;;;;;;4.22;1.92;;;;;;;3.76;73.32;93802.84;5101425;28;20028;-67
2021/01/07 18:02:53;;;;;;;4.68;2.47;;;;;;;3.84;73.56;93796.22;5109053;28;20036;-67
2021/01/07 18:05:18;;;;;;;6.05;2.95;;;;;;;3.77;73.67;93796.53;5079845;28;20031;-67
2021/01/07 18:07:44;;;;;;;6.00;3.40;;;;;;;3.82;73.69;93793.88;5098002;28;20024;-67
2021/01/07 18:10:09;;;;;;;9.93;2.90;;;;;;;3.88;74.30;93795.41;5080968;28;20104;-67
2021/01/07 18:12:35;;;;;;;8.85;4.03;;;;;;;3.88;73.71;93786.72;5078870;28;20103;-67
2021/01/07 18:15:01;;;;;;;7.55;3.92;;;;;;;3.93;73.83;93789.31;5079466;28;20474;-66
2021/01/07 18:17:26;;;;;;;12.48;4.22;;;;;;;3.94;73.70;93788.25;5087731;28;20490;-67
2021/01/07 18:19:52;;;;;;;8.75;4.97;;;;;;;4.01;73.46;93791.41;5105903;28;20102;-69
2021/01/07 18:22:18;;;;;;;7.50;4.15;;;;;;;4.06;74.02;93794.00;5109169;28;20470;-68
2021/01/07 18:24:43;;;;;;;6.88;3.88;;;;;;;4.19;73.15;93789.94;5084673;28;20027;-67
2021/01/07 18:27:08;;;;;;;8.27;3.50;;;;;;;4.26;73.30;93789.66;5106279;28;20027;-67
2021/01/07 18:29:34;;;;;;;7.65;4.05;;;;;;;4.33;72.13;93787.47;5082330;28;20161;-67
2021/01/07 18:31:59;;;;;;;9.40;3.80;;;;;;;4.39;72.47;93783.75;5098582;28;20054;-67
2021/01/07 18:34:25;;;;;;;8.73;3.90;;;;;;;4.48;71.78;93790.00;5080457;28;20517;-67
2021/01/07 18:36:50;;;;;;;5.88;3.45;;;;;;;4.57;71.28;93790.19;5080905;28;20046;-67
2021/01/07 18:39:16;;;;;;;8.38;3.67;;;;;;;4.63;72.21;93787.22;5082689;28;20047;-67
2021/01/07 18:41:44;;;;;;;6.70;3.45;;;;;;;4.67;71.67;93782.19;5112131;28;20031;-67
2021/01/07 18:44:11;;;;;;;7.03;3.47;;;;;;;4.63;70.69;93792.50;5113365;28;20041;-67
2021/01/07 18:46:36;;;;;;;6.60;2.30;;;;;;;4.52;70.07;93793.69;5102695;28;20024;-67
2021/01/07 18:49:02;;;;;;;5.95;2.63;;;;;;;4.44;71.28;93786.34;5105349;28;20540;-66
2021/01/07 18:51:28;;;;;;;4.95;2.45;;;;;;;4.35;71.17;93788.00;5094423;28;20023;-66
2021/01/07 18:53:53;;;;;;;3.47;1.95;;;;;;;4.35;71.99;93780.06;5087925;28;20047;-67
2021/01/07 18:56:19;;;;;;;6.97;3.00;;;;;;;4.36;72.80;93779.03;5087514;28;20025;-66
2021/01/07 18:58:45;;;;;;;7.00;3.42;;;;;;;4.40;72.03;93778.19;5083052;28;20028;-66
2021/01/07 19:01:10;;;;;;;6.88;2.90;;;;;;;4.42;71.62;93770.00;5101104;28;20020;-69
2021/01/07 19:03:36;;;;;;;6.35;2.97;;;;;;;4.42;73.02;93781.34;5109509;28;20020;-67
2021/01/07 19:06:03;;;;;;;4.80;2.15;;;;;;;4.47;72.34;93775.22;5094490;28;20153;-67
2021/01/07 19:08:28;;;;;;;4.28;2.50;;;;;;;4.49;72.26;93769.69;5102525;28;20498;-67
2021/01/07 19:10:55;;;;;;;3.90;2.30;;;;;;;4.54;71.92;93761.72;5089781;28;20028;-67
2021/01/07 19:13:20;;;;;;;9.82;3.60;;;;;;;4.58;71.46;93760.91;5085850;28;20106;-68
2021/01/07 19:15:46;;;;;;;5.90;2.80;;;;;;;4.56;71.40;93770.94;5103920;28;20019;-68
2021/01/07 19:18:11;;;;;;;6.32;3.17;;;;;;;4.51;72.58;93763.06;5107085;28;20103;-68
2021/01/07 19:20:37;;;;;;;7.40;3.75;;;;;;;4.50;73.10;93761.50;5091253;28;20035;-66
2021/01/07 19:23:02;;;;;;;10.07;4.22;;;;;;;4.51;73.22;93765.69;5100873;28;20012;-66